Beaver Creek Airport
CYXQ : now visible

Airfield :











YOU CAN JOIN US ON...

 
LOGIN :

Register | Disclaimer

   EN    FR    IT 

 









Legend :    VFR   Marginal VFR   IFR   Intensive IFR   Very Intensive IFR
Visi :
Ceiling :
>= 8 km
>= 3000ft
5 to 8 km
1000 to 3000 ft
1500m to 5 km
500 to 1000 ft
800 to 1500m
200 to 500 ft
< 800m
< 200 ft
Symbols :   Thunderstorms  Fog  Heavy snow  Heavy precipitations  Wind > 20 kt






- Airport Elevation : 2131 ft
- IATA code : YXQ


CYXQ - Beaver Creek

CURRENT METAR :
  • 242200Z 00000KT 30SM FEW080 SCT250 M13/M15 A2966 RMK AC2CI1 /TR CM/TR MWE/LAST STFD OBS/NXT 251600Z/ SLP102

EXPIRED METARs :
  • 242100Z 19002KT 30SM FEW080 M16/M17 A2964 RMK AC1 SLP098
  • 242000Z VRB02KT 30SM FEW080 BKN230 M17/M19 A2963 RMK AC2CI3 SLP095

TAF N/A
CZEG FIR / North America



MET'MAP, your aeronautical weather chart ! - Copyright ORBIFLY December 2007 - Disclaimer

ORBIFLY MET'MAP TEAM :

Programming & Development : Alexandra Zaïnal
Concept & original design : Baudouin d'Aumeries
Assistance for programming : Marc-Olivier Méhu
Technical & hardware support : Manuel Goepfert

Contact : metmap@orbifly.com




SOURCES & CREDITS :

   NOAA       Earth
Advisory